sensor_id;sensor_type;location;lat;lon;timestamp;temperature;humidity
59973;DHT22;55298;-36.624;-64.282;2022-12-01T00:01:31;21.50;90.00
59973;DHT22;55298;-36.624;-64.282;2022-12-01T00:04:00;21.50;90.00
59973;DHT22;55298;-36.624;-64.282;2022-12-01T00:06:28;21.40;90.00
59973;DHT22;55298;-36.624;-64.282;2022-12-01T00:08:56;21.40;90.20
59973;DHT22;55298;-36.624;-64.282;2022-12-01T00:11:34;21.40;90.50
59973;DHT22;55298;-36.624;-64.282;2022-12-01T00:14:04;21.30;90.60
59973;DHT22;55298;-36.624;-64.282;2022-12-01T00:16:32;21.30;90.90
59973;DHT22;55298;-36.624;-64.282;2022-12-01T00:19:01;21.30;90.90
59973;DHT22;55298;-36.624;-64.282;2022-12-01T00:21:30;21.20;91.00
59973;DHT22;55298;-36.624;-64.282;2022-12-01T00:23:58;21.30;91.00
59973;DHT22;55298;-36.624;-64.282;2022-12-01T00:26:28;21.30;91.00
59973;DHT22;55298;-36.624;-64.282;2022-12-01T00:28:57;21.20;91.30
59973;DHT22;55298;-36.624;-64.282;2022-12-01T00:31:26;21.10;91.10
59973;DHT22;55298;-36.624;-64.282;2022-12-01T00:33:55;20.90;90.80
59973;DHT22;55298;-36.624;-64.282;2022-12-01T00:36:24;20.90;90.50
59973;DHT22;55298;-36.624;-64.282;2022-12-01T00:38:55;20.80;90.10
59973;DHT22;55298;-36.624;-64.282;2022-12-01T00:41:24;20.80;89.80
59973;DHT22;55298;-36.624;-64.282;2022-12-01T00:43:52;20.80;90.00
59973;DHT22;55298;-36.624;-64.282;2022-12-01T00:46:20;20.70;90.20
59973;DHT22;55298;-36.624;-64.282;2022-12-01T00:48:47;20.60;90.30
59973;DHT22;55298;-36.624;-64.282;2022-12-01T00:51:15;20.50;90.10
59973;DHT22;55298;-36.624;-64.282;2022-12-01T00:53:44;20.60;90.00
59973;DHT22;55298;-36.624;-64.282;2022-12-01T00:56:11;20.50;89.80
59973;DHT22;55298;-36.624;-64.282;2022-12-01T00:58:41;20.50;90.10
59973;DHT22;55298;-36.624;-64.282;2022-12-01T01:01:12;20.40;90.10
59973;DHT22;55298;-36.624;-64.282;2022-12-01T01:03:39;20.50;90.10
59973;DHT22;55298;-36.624;-64.282;2022-12-01T01:06:09;20.40;90.30
59973;DHT22;55298;-36.624;-64.282;2022-12-01T01:08:39;20.40;90.30
59973;DHT22;55298;-36.624;-64.282;2022-12-01T01:11:07;20.50;90.10
59973;DHT22;55298;-36.624;-64.282;2022-12-01T01:13:37;20.50;90.40
59973;DHT22;55298;-36.624;-64.282;2022-12-01T01:16:16;20.50;90.60
59973;DHT22;55298;-36.624;-64.282;2022-12-01T01:18:48;20.40;90.90
59973;DHT22;55298;-36.624;-64.282;2022-12-01T01:21:18;20.40;91.00
59973;DHT22;55298;-36.624;-64.282;2022-12-01T01:23:48;20.40;91.50
59973;DHT22;55298;-36.624;-64.282;2022-12-01T01:26:21;20.30;91.90
59973;DHT22;55298;-36.624;-64.282;2022-12-01T01:28:49;20.30;92.70
59973;DHT22;55298;-36.624;-64.282;2022-12-01T01:31:21;20.20;93.10
59973;DHT22;55298;-36.624;-64.282;2022-12-01T01:33:49;20.20;93.60
59973;DHT22;55298;-36.624;-64.282;2022-12-01T01:36:17;20.10;94.20
59973;DHT22;55298;-36.624;-64.282;2022-12-01T01:38:46;20.10;94.10
59973;DHT22;55298;-36.624;-64.282;2022-12-01T01:41:18;20.10;94.50
59973;DHT22;55298;-36.624;-64.282;2022-12-01T01:43:55;20.10;94.70
59973;DHT22;55298;-36.624;-64.282;2022-12-01T01:46:26;20.10;94.80
59973;DHT22;55298;-36.624;-64.282;2022-12-01T01:51:44;19.90;95.70
59973;DHT22;55298;-36.624;-64.282;2022-12-01T01:54:24;19.80;96.00
59973;DHT22;55298;-36.624;-64.282;2022-12-01T01:56:53;19.70;96.30
59973;DHT22;55298;-36.624;-64.282;2022-12-01T01:59:28;19.70;96.40
59973;DHT22;55298;-36.624;-64.282;2022-12-01T02:02:04;19.60;96.20
59973;DHT22;55298;-36.624;-64.282;2022-12-01T02:04:36;19.60;96.10
59973;DHT22;55298;-36.624;-64.282;2022-12-01T02:07:07;19.60;96.80
59973;DHT22;55298;-36.624;-64.282;2022-12-01T02:09:35;19.40;97.40
59973;DHT22;55298;-36.624;-64.282;2022-12-01T02:12:16;19.40;98.20
59973;DHT22;55298;-36.624;-64.282;2022-12-01T02:20:38;19.30;99.80
59973;DHT22;55298;-36.624;-64.282;2022-12-01T02:23:37;19.30;99.90
59973;DHT22;55298;-36.624;-64.282;2022-12-01T02:26:32;19.30;99.90
59973;DHT22;55298;-36.624;-64.282;2022-12-01T02:29:40;19.30;99.90
59973;DHT22;55298;-36.624;-64.282;2022-12-01T02:32:21;19.30;99.90
59973;DHT22;55298;-36.624;-64.282;2022-12-01T02:35:13;19.40;99.90
59973;DHT22;55298;-36.624;-64.282;2022-12-01T02:37:48;19.40;99.90
59973;DHT22;55298;-36.624;-64.282;2022-12-01T02:40:29;19.40;99.90
59973;DHT22;55298;-36.624;-64.282;2022-12-01T02:48:33;19.40;99.90
59973;DHT22;55298;-36.624;-64.282;2022-12-01T02:51:10;19.40;99.90
59973;DHT22;55298;-36.624;-64.282;2022-12-01T02:53:39;19.50;99.90
59973;DHT22;55298;-36.624;-64.282;2022-12-01T02:56:12;19.40;99.90
59973;DHT22;55298;-36.624;-64.282;2022-12-01T02:58:42;19.40;99.90
59973;DHT22;55298;-36.624;-64.282;2022-12-01T03:06:58;19.50;99.90
59973;DHT22;55298;-36.624;-64.282;2022-12-01T03:09:54;19.50;99.90
59973;DHT22;55298;-36.624;-64.282;2022-12-01T03:15:32;19.40;99.90
59973;DHT22;55298;-36.624;-64.282;2022-12-01T03:18:28;19.30;99.90
59973;DHT22;55298;-36.624;-64.282;2022-12-01T03:21:08;19.30;99.90
59973;DHT22;55298;-36.624;-64.282;2022-12-01T03:23:41;19.20;99.90
59973;DHT22;55298;-36.624;-64.282;2022-12-01T03:26:15;19.20;99.90
59973;DHT22;55298;-36.624;-64.282;2022-12-01T03:28:49;19.20;99.90
59973;DHT22;55298;-36.624;-64.282;2022-12-01T03:31:25;19.20;99.90
59973;DHT22;55298;-36.624;-64.282;2022-12-01T03:33:59;19.00;99.90
59973;DHT22;55298;-36.624;-64.282;2022-12-01T03:36:36;19.00;99.90
59973;DHT22;55298;-36.624;-64.282;2022-12-01T03:39:11;19.00;99.90
59973;DHT22;55298;-36.624;-64.282;2022-12-01T03:41:45;19.10;99.90
59973;DHT22;55298;-36.624;-64.282;2022-12-01T03:44:21;19.10;99.90
59973;DHT22;55298;-36.624;-64.282;2022-12-01T03:46:56;19.00;99.90
59973;DHT22;55298;-36.624;-64.282;2022-12-01T03:49:30;19.00;99.90
59973;DHT22;55298;-36.624;-64.282;2022-12-01T03:52:24;18.90;99.90
59973;DHT22;55298;-36.624;-64.282;2022-12-01T03:55:16;19.00;99.70
59973;DHT22;55298;-36.624;-64.282;2022-12-01T03:57:56;18.80;99.60
59973;DHT22;55298;-36.624;-64.282;2022-12-01T04:00:27;18.70;99.90
59973;DHT22;55298;-36.624;-64.282;2022-12-01T04:02:58;18.60;99.90
59973;DHT22;55298;-36.624;-64.282;2022-12-01T04:05:29;18.40;99.50
59973;DHT22;55298;-36.624;-64.282;2022-12-01T04:07:57;18.30;99.20
59973;DHT22;55298;-36.624;-64.282;2022-12-01T04:10:25;18.30;98.10
59973;DHT22;55298;-36.624;-64.282;2022-12-01T04:12:53;18.10;96.90
59973;DHT22;55298;-36.624;-64.282;2022-12-01T04:15:25;17.90;95.80
59973;DHT22;55298;-36.624;-64.282;2022-12-01T04:17:53;17.90;94.90
59973;DHT22;55298;-36.624;-64.282;2022-12-01T04:20:21;17.90;93.60
59973;DHT22;55298;-36.624;-64.282;2022-12-01T04:22:49;17.90;93.00
59973;DHT22;55298;-36.624;-64.282;2022-12-01T04:25:17;17.80;92.50
59973;DHT22;55298;-36.624;-64.282;2022-12-01T04:27:44;17.80;91.60
59973;DHT22;55298;-36.624;-64.282;2022-12-01T04:30:13;17.80;91.70
59973;DHT22;55298;-36.624;-64.282;2022-12-01T04:32:45;17.80;91.50
59973;DHT22;55298;-36.624;-64.282;2022-12-01T04:35:13;17.80;91.70
59973;DHT22;55298;-36.624;-64.282;2022-12-01T04:37:41;17.80;92.00
59973;DHT22;55298;-36.624;-64.282;2022-12-01T04:40:09;17.80;92.00
59973;DHT22;55298;-36.624;-64.282;2022-12-01T04:42:37;17.80;92.30
59973;DHT22;55298;-36.624;-64.282;2022-12-01T04:45:05;17.80;92.40
59973;DHT22;55298;-36.624;-64.282;2022-12-01T04:47:38;17.70;92.10
59973;DHT22;55298;-36.624;-64.282;2022-12-01T04:50:06;17.70;91.70
59973;DHT22;55298;-36.624;-64.282;2022-12-01T04:52:36;17.60;92.20
59973;DHT22;55298;-36.624;-64.282;2022-12-01T04:55:04;17.60;92.30
59973;DHT22;55298;-36.624;-64.282;2022-12-01T04:57:33;17.60;92.30
59973;DHT22;55298;-36.624;-64.282;2022-12-01T05:00:01;17.50;92.20
59973;DHT22;55298;-36.624;-64.282;2022-12-01T05:02:39;17.50;91.90
59973;DHT22;55298;-36.624;-64.282;2022-12-01T05:05:10;17.40;92.00
59973;DHT22;55298;-36.624;-64.282;2022-12-01T05:07:39;17.30;92.10
59973;DHT22;55298;-36.624;-64.282;2022-12-01T05:10:08;17.20;92.20
59973;DHT22;55298;-36.624;-64.282;2022-12-01T05:12:38;17.20;92.40
59973;DHT22;55298;-36.624;-64.282;2022-12-01T05:15:07;17.10;93.00
59973;DHT22;55298;-36.624;-64.282;2022-12-01T05:17:34;17.00;93.90
59973;DHT22;55298;-36.624;-64.282;2022-12-01T05:20:02;17.00;94.70
59973;DHT22;55298;-36.624;-64.282;2022-12-01T05:22:41;17.00;95.30
59973;DHT22;55298;-36.624;-64.282;2022-12-01T05:25:10;16.90;96.40
59973;DHT22;55298;-36.624;-64.282;2022-12-01T05:27:38;16.90;97.20
59973;DHT22;55298;-36.624;-64.282;2022-12-01T05:30:06;16.80;97.90
59973;DHT22;55298;-36.624;-64.282;2022-12-01T05:32:34;16.80;98.50
59973;DHT22;55298;-36.624;-64.282;2022-12-01T05:35:02;16.70;99.10
59973;DHT22;55298;-36.624;-64.282;2022-12-01T05:37:30;16.60;99.60
59973;DHT22;55298;-36.624;-64.282;2022-12-01T05:40:00;16.60;99.60
59973;DHT22;55298;-36.624;-64.282;2022-12-01T05:42:28;16.60;99.80
59973;DHT22;55298;-36.624;-64.282;2022-12-01T05:44:55;16.50;99.90
59973;DHT22;55298;-36.624;-64.282;2022-12-01T05:47:23;16.40;99.90
59973;DHT22;55298;-36.624;-64.282;2022-12-01T05:49:51;16.40;99.90
59973;DHT22;55298;-36.624;-64.282;2022-12-01T05:52:21;16.30;99.90
59973;DHT22;55298;-36.624;-64.282;2022-12-01T05:54:50;16.30;99.90
59973;DHT22;55298;-36.624;-64.282;2022-12-01T05:57:17;16.20;99.90
59973;DHT22;55298;-36.624;-64.282;2022-12-01T05:59:46;16.20;99.90
59973;DHT22;55298;-36.624;-64.282;2022-12-01T06:02:14;16.20;99.90
59973;DHT22;55298;-36.624;-64.282;2022-12-01T06:04:41;16.30;99.90
59973;DHT22;55298;-36.624;-64.282;2022-12-01T06:07:11;16.20;99.90
59973;DHT22;55298;-36.624;-64.282;2022-12-01T06:09:40;16.20;99.90
59973;DHT22;55298;-36.624;-64.282;2022-12-01T06:12:07;16.20;99.90
59973;DHT22;55298;-36.624;-64.282;2022-12-01T06:14:34;16.20;99.90
59973;DHT22;55298;-36.624;-64.282;2022-12-01T06:17:02;16.20;99.90
59973;DHT22;55298;-36.624;-64.282;2022-12-01T06:19:29;16.20;99.90
59973;DHT22;55298;-36.624;-64.282;2022-12-01T06:21:57;16.20;99.90
59973;DHT22;55298;-36.624;-64.282;2022-12-01T06:24:25;16.10;99.90
59973;DHT22;55298;-36.624;-64.282;2022-12-01T06:26:53;16.10;99.90
59973;DHT22;55298;-36.624;-64.282;2022-12-01T06:29:20;16.00;99.90
59973;DHT22;55298;-36.624;-64.282;2022-12-01T06:31:48;16.00;99.90
59973;DHT22;55298;-36.624;-64.282;2022-12-01T06:34:16;16.00;99.90
59973;DHT22;55298;-36.624;-64.282;2022-12-01T06:36:44;16.00;99.90
59973;DHT22;55298;-36.624;-64.282;2022-12-01T06:39:13;15.90;99.90
59973;DHT22;55298;-36.624;-64.282;2022-12-01T06:41:40;15.90;99.90
59973;DHT22;55298;-36.624;-64.282;2022-12-01T06:44:09;15.90;99.90
59973;DHT22;55298;-36.624;-64.282;2022-12-01T06:46:37;15.90;99.90
59973;DHT22;55298;-36.624;-64.282;2022-12-01T06:49:05;15.80;99.90
59973;DHT22;55298;-36.624;-64.282;2022-12-01T06:51:34;15.80;99.90
59973;DHT22;55298;-36.624;-64.282;2022-12-01T06:54:01;15.80;99.90
59973;DHT22;55298;-36.624;-64.282;2022-12-01T06:56:29;15.70;99.90
59973;DHT22;55298;-36.624;-64.282;2022-12-01T06:58:57;15.70;99.90
59973;DHT22;55298;-36.624;-64.282;2022-12-01T07:01:25;15.60;99.90
59973;DHT22;55298;-36.624;-64.282;2022-12-01T07:03:52;15.60;99.90
59973;DHT22;55298;-36.624;-64.282;2022-12-01T07:06:20;15.50;99.90
59973;DHT22;55298;-36.624;-64.282;2022-12-01T07:08:48;15.50;99.90
59973;DHT22;55298;-36.624;-64.282;2022-12-01T07:11:15;15.50;99.90
59973;DHT22;55298;-36.624;-64.282;2022-12-01T07:13:44;15.50;99.90
59973;DHT22;55298;-36.624;-64.282;2022-12-01T07:16:12;15.50;99.90
59973;DHT22;55298;-36.624;-64.282;2022-12-01T07:18:40;15.50;99.90
59973;DHT22;55298;-36.624;-64.282;2022-12-01T07:21:12;15.50;99.90
59973;DHT22;55298;-36.624;-64.282;2022-12-01T07:23:40;15.50;99.90
59973;DHT22;55298;-36.624;-64.282;2022-12-01T07:26:14;15.40;99.90
59973;DHT22;55298;-36.624;-64.282;2022-12-01T07:28:44;15.40;99.90
59973;DHT22;55298;-36.624;-64.282;2022-12-01T07:31:16;15.30;99.90
59973;DHT22;55298;-36.624;-64.282;2022-12-01T07:33:44;15.30;99.90
59973;DHT22;55298;-36.624;-64.282;2022-12-01T07:36:13;15.30;99.90
59973;DHT22;55298;-36.624;-64.282;2022-12-01T07:38:41;15.20;99.90
59973;DHT22;55298;-36.624;-64.282;2022-12-01T07:41:13;15.20;99.90
59973;DHT22;55298;-36.624;-64.282;2022-12-01T07:43:41;15.10;99.90
59973;DHT22;55298;-36.624;-64.282;2022-12-01T07:46:14;15.10;99.90
59973;DHT22;55298;-36.624;-64.282;2022-12-01T07:48:43;14.90;99.90
59973;DHT22;55298;-36.624;-64.282;2022-12-01T07:51:12;14.80;99.90
59973;DHT22;55298;-36.624;-64.282;2022-12-01T07:53:43;14.80;99.90
59973;DHT22;55298;-36.624;-64.282;2022-12-01T07:56:12;14.80;99.90
59973;DHT22;55298;-36.624;-64.282;2022-12-01T07:58:43;14.80;99.90
59973;DHT22;55298;-36.624;-64.282;2022-12-01T08:01:14;14.70;99.90
59973;DHT22;55298;-36.624;-64.282;2022-12-01T08:03:42;14.60;99.90
59973;DHT22;55298;-36.624;-64.282;2022-12-01T08:06:11;14.60;99.90
59973;DHT22;55298;-36.624;-64.282;2022-12-01T08:08:39;14.50;99.90
59973;DHT22;55298;-36.624;-64.282;2022-12-01T08:11:11;14.60;99.90
59973;DHT22;55298;-36.624;-64.282;2022-12-01T08:13:39;14.50;99.90
59973;DHT22;55298;-36.624;-64.282;2022-12-01T08:16:10;14.50;99.90
59973;DHT22;55298;-36.624;-64.282;2022-12-01T08:18:39;14.50;99.90
59973;DHT22;55298;-36.624;-64.282;2022-12-01T08:21:10;14.40;99.90
59973;DHT22;55298;-36.624;-64.282;2022-12-01T08:23:40;14.50;99.90
59973;DHT22;55298;-36.624;-64.282;2022-12-01T08:26:13;14.40;99.90
59973;DHT22;55298;-36.624;-64.282;2022-12-01T08:28:43;14.40;99.90
59973;DHT22;55298;-36.624;-64.282;2022-12-01T08:31:27;14.40;99.90
59973;DHT22;55298;-36.624;-64.282;2022-12-01T08:33:55;14.30;99.90
59973;DHT22;55298;-36.624;-64.282;2022-12-01T08:36:24;14.30;99.90
59973;DHT22;55298;-36.624;-64.282;2022-12-01T08:38:53;14.20;99.90
59973;DHT22;55298;-36.624;-64.282;2022-12-01T08:41:22;14.20;99.90
59973;DHT22;55298;-36.624;-64.282;2022-12-01T08:43:50;14.20;99.90
59973;DHT22;55298;-36.624;-64.282;2022-12-01T08:46:18;14.20;99.90
59973;DHT22;55298;-36.624;-64.282;2022-12-01T08:48:46;14.20;99.90
59973;DHT22;55298;-36.624;-64.282;2022-12-01T08:51:16;14.20;99.90
59973;DHT22;55298;-36.624;-64.282;2022-12-01T08:53:47;14.20;99.90
59973;DHT22;55298;-36.624;-64.282;2022-12-01T08:56:22;14.20;99.90
59973;DHT22;55298;-36.624;-64.282;2022-12-01T08:58:50;14.20;99.90
59973;DHT22;55298;-36.624;-64.282;2022-12-01T09:01:19;14.20;99.90
59973;DHT22;55298;-36.624;-64.282;2022-12-01T09:03:49;14.30;99.90
59973;DHT22;55298;-36.624;-64.282;2022-12-01T09:06:26;14.30;99.90
59973;DHT22;55298;-36.624;-64.282;2022-12-01T09:08:54;14.40;99.90
59973;DHT22;55298;-36.624;-64.282;2022-12-01T09:11:22;14.40;99.90
59973;DHT22;55298;-36.624;-64.282;2022-12-01T09:13:49;14.40;99.90
59973;DHT22;55298;-36.624;-64.282;2022-12-01T09:16:18;14.60;99.90
59973;DHT22;55298;-36.624;-64.282;2022-12-01T09:18:46;14.60;99.90
59973;DHT22;55298;-36.624;-64.282;2022-12-01T09:21:18;14.70;99.90
59973;DHT22;55298;-36.624;-64.282;2022-12-01T09:23:46;14.80;99.90
59973;DHT22;55298;-36.624;-64.282;2022-12-01T09:26:15;14.90;99.90
59973;DHT22;55298;-36.624;-64.282;2022-12-01T09:28:46;14.90;99.90
59973;DHT22;55298;-36.624;-64.282;2022-12-01T09:31:15;15.00;99.90
59973;DHT22;55298;-36.624;-64.282;2022-12-01T09:33:43;15.00;99.90
59973;DHT22;55298;-36.624;-64.282;2022-12-01T09:36:11;15.00;99.90
59973;DHT22;55298;-36.624;-64.282;2022-12-01T09:38:39;15.00;99.90
59973;DHT22;55298;-36.624;-64.282;2022-12-01T09:41:16;15.10;99.90
59973;DHT22;55298;-36.624;-64.282;2022-12-01T09:46:54;15.20;99.90
59973;DHT22;55298;-36.624;-64.282;2022-12-01T09:49:33;15.20;99.90
59973;DHT22;55298;-36.624;-64.282;2022-12-01T09:52:04;15.20;99.90
59973;DHT22;55298;-36.624;-64.282;2022-12-01T09:54:32;15.10;99.90
59973;DHT22;55298;-36.624;-64.282;2022-12-01T09:56:59;15.20;99.90
59973;DHT22;55298;-36.624;-64.282;2022-12-01T09:59:36;15.10;99.90
59973;DHT22;55298;-36.624;-64.282;2022-12-01T10:02:47;15.30;99.90
59973;DHT22;55298;-36.624;-64.282;2022-12-01T10:05:12;15.30;99.90
59973;DHT22;55298;-36.624;-64.282;2022-12-01T10:07:59;15.70;99.90
59973;DHT22;55298;-36.624;-64.282;2022-12-01T10:13:24;17.30;99.90
59973;DHT22;55298;-36.624;-64.282;2022-12-01T10:16:07;17.50;99.90
59973;DHT22;55298;-36.624;-64.282;2022-12-01T10:18:48;17.20;99.90
59973;DHT22;55298;-36.624;-64.282;2022-12-01T10:21:37;16.80;99.90
59973;DHT22;55298;-36.624;-64.282;2022-12-01T10:24:30;16.40;99.90
59973;DHT22;55298;-36.624;-64.282;2022-12-01T10:30:09;15.90;99.90
59973;DHT22;55298;-36.624;-64.282;2022-12-01T10:33:05;15.80;99.90
59973;DHT22;55298;-36.624;-64.282;2022-12-01T10:35:36;15.60;99.90
59973;DHT22;55298;-36.624;-64.282;2022-12-01T10:38:14;15.60;99.90
59973;DHT22;55298;-36.624;-64.282;2022-12-01T10:40:46;15.60;99.90
59973;DHT22;55298;-36.624;-64.282;2022-12-01T10:43:16;15.60;99.90
59973;DHT22;55298;-36.624;-64.282;2022-12-01T10:45:44;15.80;99.90
59973;DHT22;55298;-36.624;-64.282;2022-12-01T10:48:18;15.80;99.90
59973;DHT22;55298;-36.624;-64.282;2022-12-01T10:50:51;16.10;99.90
59973;DHT22;55298;-36.624;-64.282;2022-12-01T10:53:34;16.30;99.90
59973;DHT22;55298;-36.624;-64.282;2022-12-01T10:56:17;16.50;99.90
59973;DHT22;55298;-36.624;-64.282;2022-12-01T10:58:51;16.50;99.90
59973;DHT22;55298;-36.624;-64.282;2022-12-01T11:01:25;16.80;99.90
59973;DHT22;55298;-36.624;-64.282;2022-12-01T11:04:21;17.40;99.90
59973;DHT22;55298;-36.624;-64.282;2022-12-01T11:06:51;17.90;99.90
59973;DHT22;55298;-36.624;-64.282;2022-12-01T11:09:24;18.30;98.30
59973;DHT22;55298;-36.624;-64.282;2022-12-01T11:11:59;19.30;95.70
59973;DHT22;55298;-36.624;-64.282;2022-12-01T11:14:44;20.50;91.40
59973;DHT22;55298;-36.624;-64.282;2022-12-01T11:17:27;21.30;84.80
59973;DHT22;55298;-36.624;-64.282;2022-12-01T11:20:20;22.30;81.50
59973;DHT22;55298;-36.624;-64.282;2022-12-01T11:22:46;23.50;74.10
59973;DHT22;55298;-36.624;-64.282;2022-12-01T11:25:22;24.30;65.80
59973;DHT22;55298;-36.624;-64.282;2022-12-01T11:27:52;24.70;59.10
59973;DHT22;55298;-36.624;-64.282;2022-12-01T11:30:29;24.90;57.80
59973;DHT22;55298;-36.624;-64.282;2022-12-01T11:32:59;25.20;57.30
59973;DHT22;55298;-36.624;-64.282;2022-12-01T11:35:38;25.60;57.10
59973;DHT22;55298;-36.624;-64.282;2022-12-01T11:38:23;26.00;54.10
59973;DHT22;55298;-36.624;-64.282;2022-12-01T11:40:57;26.40;51.90
59973;DHT22;55298;-36.624;-64.282;2022-12-01T11:43:31;26.90;51.90
59973;DHT22;55298;-36.624;-64.282;2022-12-01T11:46:05;27.20;51.80
59973;DHT22;55298;-36.624;-64.282;2022-12-01T11:48:37;27.50;48.90
59973;DHT22;55298;-36.624;-64.282;2022-12-01T11:51:25;27.70;48.40
59973;DHT22;55298;-36.624;-64.282;2022-12-01T11:54:05;27.40;46.50
59973;DHT22;55298;-36.624;-64.282;2022-12-01T11:56:33;27.20;46.40
59973;DHT22;55298;-36.624;-64.282;2022-12-01T11:59:07;27.20;47.80
59973;DHT22;55298;-36.624;-64.282;2022-12-01T12:04:43;27.70;46.30
59973;DHT22;55298;-36.624;-64.282;2022-12-01T12:07:43;27.80;44.90
59973;DHT22;55298;-36.624;-64.282;2022-12-01T12:13:34;28.30;44.80
59973;DHT22;55298;-36.624;-64.282;2022-12-01T12:16:33;28.90;43.10
59973;DHT22;55298;-36.624;-64.282;2022-12-01T12:19:33;28.80;39.50
59973;DHT22;55298;-36.624;-64.282;2022-12-01T12:28:07;29.60;43.40
59973;DHT22;55298;-36.624;-64.282;2022-12-01T12:30:56;30.40;39.80
59973;DHT22;55298;-36.624;-64.282;2022-12-01T12:33:57;30.90;38.90
59973;DHT22;55298;-36.624;-64.282;2022-12-01T12:39:41;30.70;33.70
59973;DHT22;55298;-36.624;-64.282;2022-12-01T12:42:36;30.70;34.60
59973;DHT22;55298;-36.624;-64.282;2022-12-01T12:45:34;30.30;32.80
59973;DHT22;55298;-36.624;-64.282;2022-12-01T12:48:39;30.30;33.90
59973;DHT22;55298;-36.624;-64.282;2022-12-01T12:51:31;30.60;35.10
59973;DHT22;55298;-36.624;-64.282;2022-12-01T12:54:18;30.80;32.60
59973;DHT22;55298;-36.624;-64.282;2022-12-01T12:57:01;30.80;34.00
59973;DHT22;55298;-36.624;-64.282;2022-12-01T12:59:53;31.00;33.50
59973;DHT22;55298;-36.624;-64.282;2022-12-01T13:02:39;31.30;31.30
59973;DHT22;55298;-36.624;-64.282;2022-12-01T13:05:24;31.50;30.70
59973;DHT22;55298;-36.624;-64.282;2022-12-01T13:08:07;31.70;31.00
59973;DHT22;55298;-36.624;-64.282;2022-12-01T13:10:54;32.20;30.80
59973;DHT22;55298;-36.624;-64.282;2022-12-01T13:13:38;32.50;29.70
59973;DHT22;55298;-36.624;-64.282;2022-12-01T13:16:21;32.00;25.30
59973;DHT22;55298;-36.624;-64.282;2022-12-01T13:18:54;31.70;27.80
59973;DHT22;55298;-36.624;-64.282;2022-12-01T13:21:33;31.80;28.50
59973;DHT22;55298;-36.624;-64.282;2022-12-01T13:24:12;32.00;29.30
59973;DHT22;55298;-36.624;-64.282;2022-12-01T13:26:46;32.30;25.40
59973;DHT22;55298;-36.624;-64.282;2022-12-01T13:29:18;32.40;26.70
59973;DHT22;55298;-36.624;-64.282;2022-12-01T13:31:54;32.90;26.60
59973;DHT22;55298;-36.624;-64.282;2022-12-01T13:34:30;32.80;23.60
59973;DHT22;55298;-36.624;-64.282;2022-12-01T13:37:00;32.70;22.60
59973;DHT22;55298;-36.624;-64.282;2022-12-01T13:39:35;32.60;21.10
59973;DHT22;55298;-36.624;-64.282;2022-12-01T13:42:18;32.60;21.30
59973;DHT22;55298;-36.624;-64.282;2022-12-01T13:44:58;33.00;20.10
59973;DHT22;55298;-36.624;-64.282;2022-12-01T13:47:46;32.60;20.00
59973;DHT22;55298;-36.624;-64.282;2022-12-01T13:53:30;33.10;19.00
59973;DHT22;55298;-36.624;-64.282;2022-12-01T13:56:23;33.40;17.80
59973;DHT22;55298;-36.624;-64.282;2022-12-01T13:58:53;33.70;17.20
59973;DHT22;55298;-36.624;-64.282;2022-12-01T14:01:44;33.60;15.40
59973;DHT22;55298;-36.624;-64.282;2022-12-01T14:04:25;33.30;14.80
59973;DHT22;55298;-36.624;-64.282;2022-12-01T14:09:42;32.40;14.90
59973;DHT22;55298;-36.624;-64.282;2022-12-01T14:12:24;32.00;16.00
59973;DHT22;55298;-36.624;-64.282;2022-12-01T14:15:04;31.40;16.90
59973;DHT22;55298;-36.624;-64.282;2022-12-01T14:17:47;31.40;17.80
59973;DHT22;55298;-36.624;-64.282;2022-12-01T14:20:27;31.50;18.10
59973;DHT22;55298;-36.624;-64.282;2022-12-01T14:23:25;32.10;18.30
59973;DHT22;55298;-36.624;-64.282;2022-12-01T14:26:18;32.10;17.50
59973;DHT22;55298;-36.624;-64.282;2022-12-01T14:29:09;31.60;17.90
59973;DHT22;55298;-36.624;-64.282;2022-12-01T14:32:18;31.70;17.50
59973;DHT22;55298;-36.624;-64.282;2022-12-01T14:34:57;31.30;17.90
59973;DHT22;55298;-36.624;-64.282;2022-12-01T14:37:44;30.70;18.00
59973;DHT22;55298;-36.624;-64.282;2022-12-01T14:40:20;29.90;20.40
59973;DHT22;55298;-36.624;-64.282;2022-12-01T14:42:52;29.80;20.50
59973;DHT22;55298;-36.624;-64.282;2022-12-01T14:48:43;29.20;19.90
59973;DHT22;55298;-36.624;-64.282;2022-12-01T14:51:26;29.20;20.40
59973;DHT22;55298;-36.624;-64.282;2022-12-01T14:54:00;29.10;22.00
59973;DHT22;55298;-36.624;-64.282;2022-12-01T14:56:32;29.00;22.50
59973;DHT22;55298;-36.624;-64.282;2022-12-01T14:59:21;29.50;22.50
59973;DHT22;55298;-36.624;-64.282;2022-12-01T15:01:56;29.80;20.80
59973;DHT22;55298;-36.624;-64.282;2022-12-01T15:04:27;29.90;21.60
59973;DHT22;55298;-36.624;-64.282;2022-12-01T15:06:56;30.00;21.90
59973;DHT22;55298;-36.624;-64.282;2022-12-01T15:09:24;30.00;21.50
59973;DHT22;55298;-36.624;-64.282;2022-12-01T15:11:57;29.90;22.30
59973;DHT22;55298;-36.624;-64.282;2022-12-01T15:14:37;30.20;23.60
59973;DHT22;55298;-36.624;-64.282;2022-12-01T15:17:06;30.70;23.50
59973;DHT22;55298;-36.624;-64.282;2022-12-01T15:19:38;30.80;22.30
59973;DHT22;55298;-36.624;-64.282;2022-12-01T15:22:12;31.00;23.00
59973;DHT22;55298;-36.624;-64.282;2022-12-01T15:24:43;30.90;22.80
59973;DHT22;55298;-36.624;-64.282;2022-12-01T15:27:28;30.90;21.20
59973;DHT22;55298;-36.624;-64.282;2022-12-01T15:30:01;30.80;22.00
59973;DHT22;55298;-36.624;-64.282;2022-12-01T15:32:33;30.20;21.30
59973;DHT22;55298;-36.624;-64.282;2022-12-01T15:35:18;30.10;21.80
59973;DHT22;55298;-36.624;-64.282;2022-12-01T15:37:49;30.20;22.60
59973;DHT22;55298;-36.624;-64.282;2022-12-01T15:40:20;30.00;21.60
59973;DHT22;55298;-36.624;-64.282;2022-12-01T15:42:59;29.60;22.00
59973;DHT22;55298;-36.624;-64.282;2022-12-01T15:45:28;29.40;20.60
59973;DHT22;55298;-36.624;-64.282;2022-12-01T15:47:57;29.40;21.10
59973;DHT22;55298;-36.624;-64.282;2022-12-01T15:50:36;29.50;21.30
59973;DHT22;55298;-36.624;-64.282;2022-12-01T15:53:23;29.70;19.50
59973;DHT22;55298;-36.624;-64.282;2022-12-01T15:55:54;29.40;20.30
59973;DHT22;55298;-36.624;-64.282;2022-12-01T15:58:26;29.20;20.60
59973;DHT22;55298;-36.624;-64.282;2022-12-01T16:01:04;29.30;19.00
59973;DHT22;55298;-36.624;-64.282;2022-12-01T16:03:55;29.70;17.70
59973;DHT22;55298;-36.624;-64.282;2022-12-01T16:07:06;30.00;17.20
59973;DHT22;55298;-36.624;-64.282;2022-12-01T16:09:38;30.30;18.20
59973;DHT22;55298;-36.624;-64.282;2022-12-01T16:12:24;30.40;17.50
59973;DHT22;55298;-36.624;-64.282;2022-12-01T16:15:15;30.70;17.80
59973;DHT22;55298;-36.624;-64.282;2022-12-01T16:17:58;30.40;16.10
59973;DHT22;55298;-36.624;-64.282;2022-12-01T16:20:33;30.30;16.50
59973;DHT22;55298;-36.624;-64.282;2022-12-01T16:23:13;30.10;16.60
59973;DHT22;55298;-36.624;-64.282;2022-12-01T16:25:45;29.10;16.60
59973;DHT22;55298;-36.624;-64.282;2022-12-01T16:28:24;28.30;17.80